sensor_id;sensor_type;location;lat;lon;timestamp;P1;durP1;ratioP1;P2;durP2;ratioP2
479;SDS011;226;48.606;9.096;2023-04-12T00:01:53;10.10;;;1.97;;
479;SDS011;226;48.606;9.096;2023-04-12T00:04:21;1.87;;;1.20;;
479;SDS011;226;48.606;9.096;2023-04-12T00:06:54;1.77;;;1.67;;
479;SDS011;226;48.606;9.096;2023-04-12T00:09:23;6.27;;;3.20;;
479;SDS011;226;48.606;9.096;2023-04-12T00:11:57;2.23;;;2.10;;
479;SDS011;226;48.606;9.096;2023-04-12T00:14:25;2.20;;;2.00;;
479;SDS011;226;48.606;9.096;2023-04-12T00:16:53;1.80;;;1.43;;
479;SDS011;226;48.606;9.096;2023-04-12T00:19:21;3.17;;;2.50;;
479;SDS011;226;48.606;9.096;2023-04-12T00:21:51;1.80;;;1.70;;
479;SDS011;226;48.606;9.096;2023-04-12T00:24:19;1.90;;;1.60;;
479;SDS011;226;48.606;9.096;2023-04-12T00:26:47;2.30;;;2.10;;
479;SDS011;226;48.606;9.096;2023-04-12T00:29:16;6.67;;;2.10;;
479;SDS011;226;48.606;9.096;2023-04-12T00:31:44;1.70;;;1.60;;
479;SDS011;226;48.606;9.096;2023-04-12T00:34:12;1.93;;;1.83;;
479;SDS011;226;48.606;9.096;2023-04-12T00:36:41;2.87;;;2.63;;
479;SDS011;226;48.606;9.096;2023-04-12T00:39:09;1.77;;;1.63;;
479;SDS011;226;48.606;9.096;2023-04-12T00:41:37;3.33;;;1.90;;
479;SDS011;226;48.606;9.096;2023-04-12T00:44:05;4.80;;;1.63;;
479;SDS011;226;48.606;9.096;2023-04-12T00:46:35;1.50;;;1.20;;
479;SDS011;226;48.606;9.096;2023-04-12T00:49:04;4.77;;;1.93;;
479;SDS011;226;48.606;9.096;2023-04-12T00:51:32;3.93;;;1.90;;
479;SDS011;226;48.606;9.096;2023-04-12T00:54:00;2.57;;;2.37;;
479;SDS011;226;48.606;9.096;2023-04-12T00:56:29;7.43;;;1.63;;
479;SDS011;226;48.606;9.096;2023-04-12T00:58:57;2.13;;;1.60;;
479;SDS011;226;48.606;9.096;2023-04-12T01:01:27;1.80;;;1.70;;
479;SDS011;226;48.606;9.096;2023-04-12T01:03:58;3.40;;;1.97;;
479;SDS011;226;48.606;9.096;2023-04-12T01:06:35;2.13;;;1.93;;
479;SDS011;226;48.606;9.096;2023-04-12T01:09:13;4.93;;;2.50;;
479;SDS011;226;48.606;9.096;2023-04-12T01:11:50;1.90;;;1.80;;
479;SDS011;226;48.606;9.096;2023-04-12T01:14:28;5.90;;;2.20;;
479;SDS011;226;48.606;9.096;2023-04-12T01:17:04;1.73;;;1.63;;
479;SDS011;226;48.606;9.096;2023-04-12T01:19:45;1.70;;;1.70;;
479;SDS011;226;48.606;9.096;2023-04-12T01:22:28;3.80;;;2.33;;
479;SDS011;226;48.606;9.096;2023-04-12T01:25:10;3.13;;;2.50;;
479;SDS011;226;48.606;9.096;2023-04-12T01:27:52;1.90;;;1.77;;
479;SDS011;226;48.606;9.096;2023-04-12T01:30:22;2.30;;;2.10;;
479;SDS011;226;48.606;9.096;2023-04-12T01:32:55;2.63;;;2.10;;
479;SDS011;226;48.606;9.096;2023-04-12T01:35:27;8.67;;;1.80;;
479;SDS011;226;48.606;9.096;2023-04-12T01:37:59;1.80;;;1.77;;
479;SDS011;226;48.606;9.096;2023-04-12T01:40:28;3.10;;;2.00;;
479;SDS011;226;48.606;9.096;2023-04-12T01:43:04;4.70;;;3.17;;
479;SDS011;226;48.606;9.096;2023-04-12T01:45:33;5.47;;;2.20;;
479;SDS011;226;48.606;9.096;2023-04-12T01:48:02;2.30;;;2.10;;
479;SDS011;226;48.606;9.096;2023-04-12T01:50:34;2.87;;;2.40;;
479;SDS011;226;48.606;9.096;2023-04-12T01:53:10;2.20;;;2.00;;
479;SDS011;226;48.606;9.096;2023-04-12T01:55:40;2.00;;;1.90;;
479;SDS011;226;48.606;9.096;2023-04-12T01:58:13;3.27;;;1.63;;
479;SDS011;226;48.606;9.096;2023-04-12T02:00:43;2.47;;;2.20;;
479;SDS011;226;48.606;9.096;2023-04-12T02:03:12;19.53;;;2.47;;
479;SDS011;226;48.606;9.096;2023-04-12T02:05:41;2.90;;;1.87;;
479;SDS011;226;48.606;9.096;2023-04-12T02:08:09;2.07;;;1.93;;
479;SDS011;226;48.606;9.096;2023-04-12T02:10:38;4.03;;;3.23;;
479;SDS011;226;48.606;9.096;2023-04-12T02:13:06;3.27;;;2.00;;
479;SDS011;226;48.606;9.096;2023-04-12T02:15:35;4.50;;;2.20;;
479;SDS011;226;48.606;9.096;2023-04-12T02:18:05;3.63;;;2.03;;
479;SDS011;226;48.606;9.096;2023-04-12T02:20:33;3.10;;;1.83;;
479;SDS011;226;48.606;9.096;2023-04-12T02:23:01;5.70;;;3.30;;
479;SDS011;226;48.606;9.096;2023-04-12T02:25:30;1.70;;;1.60;;
479;SDS011;226;48.606;9.096;2023-04-12T02:27:58;2.27;;;1.70;;
479;SDS011;226;48.606;9.096;2023-04-12T02:30:27;2.83;;;2.10;;
479;SDS011;226;48.606;9.096;2023-04-12T02:32:56;5.73;;;2.30;;
479;SDS011;226;48.606;9.096;2023-04-12T02:35:24;5.00;;;2.00;;
479;SDS011;226;48.606;9.096;2023-04-12T02:37:53;9.20;;;2.00;;
479;SDS011;226;48.606;9.096;2023-04-12T02:40:21;4.67;;;2.27;;
479;SDS011;226;48.606;9.096;2023-04-12T02:42:49;3.10;;;2.13;;
479;SDS011;226;48.606;9.096;2023-04-12T02:45:17;2.63;;;1.83;;
479;SDS011;226;48.606;9.096;2023-04-12T02:47:46;2.50;;;1.80;;
479;SDS011;226;48.606;9.096;2023-04-12T02:50:15;3.07;;;2.20;;
479;SDS011;226;48.606;9.096;2023-04-12T02:52:43;4.40;;;1.97;;
479;SDS011;226;48.606;9.096;2023-04-12T02:55:12;2.00;;;1.70;;
479;SDS011;226;48.606;9.096;2023-04-12T02:57:40;9.00;;;1.57;;
479;SDS011;226;48.606;9.096;2023-04-12T03:00:10;4.53;;;1.60;;
479;SDS011;226;48.606;9.096;2023-04-12T03:02:41;1.93;;;1.70;;
479;SDS011;226;48.606;9.096;2023-04-12T03:05:10;2.50;;;1.90;;
479;SDS011;226;48.606;9.096;2023-04-12T03:07:41;3.27;;;1.47;;
479;SDS011;226;48.606;9.096;2023-04-12T03:10:09;1.90;;;1.80;;
479;SDS011;226;48.606;9.096;2023-04-12T03:12:38;1.80;;;1.63;;
479;SDS011;226;48.606;9.096;2023-04-12T03:15:07;1.93;;;1.83;;
479;SDS011;226;48.606;9.096;2023-04-12T03:17:36;7.10;;;2.33;;
479;SDS011;226;48.606;9.096;2023-04-12T03:20:04;2.30;;;2.10;;
479;SDS011;226;48.606;9.096;2023-04-12T03:22:35;2.53;;;1.60;;
479;SDS011;226;48.606;9.096;2023-04-12T03:25:05;2.57;;;2.00;;
479;SDS011;226;48.606;9.096;2023-04-12T03:27:34;2.40;;;2.20;;
479;SDS011;226;48.606;9.096;2023-04-12T03:30:03;5.20;;;2.43;;
479;SDS011;226;48.606;9.096;2023-04-12T03:32:32;2.17;;;2.00;;
479;SDS011;226;48.606;9.096;2023-04-12T03:35:00;4.13;;;2.20;;
479;SDS011;226;48.606;9.096;2023-04-12T03:37:28;2.80;;;1.70;;
479;SDS011;226;48.606;9.096;2023-04-12T03:39:57;2.80;;;2.30;;
479;SDS011;226;48.606;9.096;2023-04-12T03:42:27;1.90;;;1.80;;
479;SDS011;226;48.606;9.096;2023-04-12T03:44:59;2.73;;;2.50;;
479;SDS011;226;48.606;9.096;2023-04-12T03:47:27;2.80;;;2.00;;
479;SDS011;226;48.606;9.096;2023-04-12T03:49:56;2.03;;;1.93;;
479;SDS011;226;48.606;9.096;2023-04-12T03:52:37;2.13;;;2.03;;
479;SDS011;226;48.606;9.096;2023-04-12T03:55:05;2.17;;;2.07;;
479;SDS011;226;48.606;9.096;2023-04-12T03:57:35;4.50;;;2.50;;
479;SDS011;226;48.606;9.096;2023-04-12T04:00:04;2.50;;;1.97;;
479;SDS011;226;48.606;9.096;2023-04-12T04:02:35;5.40;;;2.40;;
479;SDS011;226;48.606;9.096;2023-04-12T04:05:04;3.50;;;2.73;;
479;SDS011;226;48.606;9.096;2023-04-12T04:07:32;2.13;;;1.80;;
479;SDS011;226;48.606;9.096;2023-04-12T04:10:02;2.97;;;2.37;;
479;SDS011;226;48.606;9.096;2023-04-12T04:12:31;3.17;;;2.60;;
479;SDS011;226;48.606;9.096;2023-04-12T04:15:01;2.63;;;2.43;;
479;SDS011;226;48.606;9.096;2023-04-12T04:17:29;3.47;;;2.43;;
479;SDS011;226;48.606;9.096;2023-04-12T04:19:57;6.37;;;2.23;;
479;SDS011;226;48.606;9.096;2023-04-12T04:22:25;2.23;;;2.03;;
479;SDS011;226;48.606;9.096;2023-04-12T04:24:54;2.40;;;2.20;;
479;SDS011;226;48.606;9.096;2023-04-12T04:27:23;2.10;;;1.73;;
479;SDS011;226;48.606;9.096;2023-04-12T04:29:51;4.83;;;2.50;;
479;SDS011;226;48.606;9.096;2023-04-12T04:32:21;4.47;;;2.83;;
479;SDS011;226;48.606;9.096;2023-04-12T04:34:50;3.27;;;2.07;;
479;SDS011;226;48.606;9.096;2023-04-12T04:37:18;2.80;;;2.50;;
479;SDS011;226;48.606;9.096;2023-04-12T04:39:46;4.23;;;2.70;;
479;SDS011;226;48.606;9.096;2023-04-12T04:42:14;6.30;;;3.33;;
479;SDS011;226;48.606;9.096;2023-04-12T04:44:43;3.57;;;2.73;;
479;SDS011;226;48.606;9.096;2023-04-12T04:47:11;10.67;;;4.40;;
479;SDS011;226;48.606;9.096;2023-04-12T04:49:40;3.93;;;2.80;;
479;SDS011;226;48.606;9.096;2023-04-12T04:52:09;3.80;;;2.83;;
479;SDS011;226;48.606;9.096;2023-04-12T04:54:38;3.43;;;3.00;;
479;SDS011;226;48.606;9.096;2023-04-12T04:57:06;6.70;;;2.70;;
479;SDS011;226;48.606;9.096;2023-04-12T04:59:36;2.67;;;2.20;;
479;SDS011;226;48.606;9.096;2023-04-12T05:02:05;3.30;;;2.63;;
479;SDS011;226;48.606;9.096;2023-04-12T05:04:33;9.73;;;2.87;;
479;SDS011;226;48.606;9.096;2023-04-12T05:07:03;1.50;;;1.37;;
479;SDS011;226;48.606;9.096;2023-04-12T05:09:31;4.50;;;2.43;;
479;SDS011;226;48.606;9.096;2023-04-12T05:11:59;2.30;;;1.97;;
479;SDS011;226;48.606;9.096;2023-04-12T05:14:27;2.13;;;1.93;;
479;SDS011;226;48.606;9.096;2023-04-12T05:17:12;3.07;;;2.40;;
479;SDS011;226;48.606;9.096;2023-04-12T05:19:40;2.83;;;2.10;;
479;SDS011;226;48.606;9.096;2023-04-12T05:22:11;1.83;;;1.70;;
479;SDS011;226;48.606;9.096;2023-04-12T05:24:39;3.07;;;2.30;;
479;SDS011;226;48.606;9.096;2023-04-12T05:27:07;2.87;;;2.13;;
479;SDS011;226;48.606;9.096;2023-04-12T05:29:36;3.23;;;1.97;;
479;SDS011;226;48.606;9.096;2023-04-12T05:32:04;1.97;;;1.77;;
479;SDS011;226;48.606;9.096;2023-04-12T05:34:32;6.00;;;2.67;;
479;SDS011;226;48.606;9.096;2023-04-12T05:37:01;3.00;;;2.50;;
479;SDS011;226;48.606;9.096;2023-04-12T05:39:32;1.93;;;1.80;;
479;SDS011;226;48.606;9.096;2023-04-12T05:42:00;2.63;;;1.87;;
479;SDS011;226;48.606;9.096;2023-04-12T05:44:28;2.90;;;2.20;;
479;SDS011;226;48.606;9.096;2023-04-12T05:46:57;2.13;;;2.00;;
479;SDS011;226;48.606;9.096;2023-04-12T05:49:27;2.50;;;1.87;;
479;SDS011;226;48.606;9.096;2023-04-12T05:51:56;3.40;;;2.17;;
479;SDS011;226;48.606;9.096;2023-04-12T05:54:24;2.63;;;1.57;;
479;SDS011;226;48.606;9.096;2023-04-12T05:56:54;3.93;;;1.83;;
479;SDS011;226;48.606;9.096;2023-04-12T05:59:22;3.20;;;2.37;;
479;SDS011;226;48.606;9.096;2023-04-12T06:01:50;9.50;;;2.40;;
479;SDS011;226;48.606;9.096;2023-04-12T06:04:19;2.60;;;2.40;;
479;SDS011;226;48.606;9.096;2023-04-12T06:06:48;7.73;;;3.13;;
479;SDS011;226;48.606;9.096;2023-04-12T06:09:16;3.10;;;2.30;;
479;SDS011;226;48.606;9.096;2023-04-12T06:11:44;4.33;;;2.30;;
479;SDS011;226;48.606;9.096;2023-04-12T06:14:14;2.17;;;1.90;;
479;SDS011;226;48.606;9.096;2023-04-12T06:16:42;4.30;;;2.50;;
479;SDS011;226;48.606;9.096;2023-04-12T06:19:10;4.07;;;2.70;;
479;SDS011;226;48.606;9.096;2023-04-12T06:21:38;4.30;;;2.57;;
479;SDS011;226;48.606;9.096;2023-04-12T06:24:07;2.73;;;2.40;;
479;SDS011;226;48.606;9.096;2023-04-12T06:26:35;2.97;;;2.10;;
479;SDS011;226;48.606;9.096;2023-04-12T06:29:05;2.07;;;1.97;;
479;SDS011;226;48.606;9.096;2023-04-12T06:31:35;4.10;;;2.63;;
479;SDS011;226;48.606;9.096;2023-04-12T06:34:03;2.27;;;2.00;;
479;SDS011;226;48.606;9.096;2023-04-12T06:36:31;6.57;;;1.90;;
479;SDS011;226;48.606;9.096;2023-04-12T06:38:59;2.93;;;2.00;;
479;SDS011;226;48.606;9.096;2023-04-12T06:41:28;4.73;;;2.50;;
479;SDS011;226;48.606;9.096;2023-04-12T06:43:56;6.27;;;2.20;;
479;SDS011;226;48.606;9.096;2023-04-12T06:46:24;3.93;;;1.90;;
479;SDS011;226;48.606;9.096;2023-04-12T06:48:54;1.90;;;1.80;;
479;SDS011;226;48.606;9.096;2023-04-12T06:51:23;2.20;;;2.00;;
479;SDS011;226;48.606;9.096;2023-04-12T06:53:51;2.23;;;1.90;;
479;SDS011;226;48.606;9.096;2023-04-12T06:56:19;2.03;;;1.70;;
479;SDS011;226;48.606;9.096;2023-04-12T06:58:47;1.73;;;1.63;;
479;SDS011;226;48.606;9.096;2023-04-12T07:01:15;2.23;;;2.03;;
479;SDS011;226;48.606;9.096;2023-04-12T07:03:43;2.70;;;2.00;;
479;SDS011;226;48.606;9.096;2023-04-12T07:06:13;2.60;;;1.83;;
479;SDS011;226;48.606;9.096;2023-04-12T07:08:51;2.07;;;1.87;;
479;SDS011;226;48.606;9.096;2023-04-12T07:11:20;3.10;;;1.80;;
479;SDS011;226;48.606;9.096;2023-04-12T07:13:49;2.20;;;2.10;;
479;SDS011;226;48.606;9.096;2023-04-12T07:16:17;2.70;;;1.83;;
479;SDS011;226;48.606;9.096;2023-04-12T07:18:45;2.17;;;2.00;;
479;SDS011;226;48.606;9.096;2023-04-12T07:21:15;3.47;;;1.53;;
479;SDS011;226;48.606;9.096;2023-04-12T07:23:43;1.83;;;1.30;;
479;SDS011;226;48.606;9.096;2023-04-12T07:26:16;2.73;;;2.13;;
479;SDS011;226;48.606;9.096;2023-04-12T07:28:44;2.50;;;1.70;;
479;SDS011;226;48.606;9.096;2023-04-12T07:31:12;2.60;;;1.87;;
479;SDS011;226;48.606;9.096;2023-04-12T07:33:40;2.03;;;1.73;;
479;SDS011;226;48.606;9.096;2023-04-12T07:36:09;2.07;;;1.97;;
479;SDS011;226;48.606;9.096;2023-04-12T07:38:39;2.97;;;1.97;;
479;SDS011;226;48.606;9.096;2023-04-12T07:41:07;1.57;;;1.47;;
479;SDS011;226;48.606;9.096;2023-04-12T07:43:36;2.00;;;1.87;;
479;SDS011;226;48.606;9.096;2023-04-12T07:46:04;2.53;;;1.67;;
479;SDS011;226;48.606;9.096;2023-04-12T07:48:34;1.70;;;1.60;;
479;SDS011;226;48.606;9.096;2023-04-12T07:51:02;2.20;;;1.87;;
479;SDS011;226;48.606;9.096;2023-04-12T07:53:31;2.20;;;1.83;;
479;SDS011;226;48.606;9.096;2023-04-12T07:56:00;1.80;;;1.70;;
479;SDS011;226;48.606;9.096;2023-04-12T07:58:31;4.03;;;1.50;;
479;SDS011;226;48.606;9.096;2023-04-12T08:01:00;2.50;;;2.30;;
479;SDS011;226;48.606;9.096;2023-04-12T08:03:28;1.60;;;1.50;;
479;SDS011;226;48.606;9.096;2023-04-12T08:05:56;3.57;;;1.80;;
479;SDS011;226;48.606;9.096;2023-04-12T08:08:25;1.53;;;1.43;;
479;SDS011;226;48.606;9.096;2023-04-12T08:10:53;3.00;;;1.80;;
479;SDS011;226;48.606;9.096;2023-04-12T08:13:22;1.70;;;1.60;;
479;SDS011;226;48.606;9.096;2023-04-12T08:15:50;3.60;;;2.17;;
479;SDS011;226;48.606;9.096;2023-04-12T08:18:19;1.43;;;1.33;;
479;SDS011;226;48.606;9.096;2023-04-12T08:20:47;2.10;;;1.80;;
479;SDS011;226;48.606;9.096;2023-04-12T08:23:15;3.93;;;1.87;;
479;SDS011;226;48.606;9.096;2023-04-12T08:25:43;2.80;;;1.60;;
479;SDS011;226;48.606;9.096;2023-04-12T08:28:11;5.90;;;1.93;;
479;SDS011;226;48.606;9.096;2023-04-12T08:30:41;3.20;;;2.00;;
479;SDS011;226;48.606;9.096;2023-04-12T08:33:09;1.90;;;1.27;;
479;SDS011;226;48.606;9.096;2023-04-12T08:35:37;1.80;;;1.70;;
479;SDS011;226;48.606;9.096;2023-04-12T08:38:06;4.33;;;1.50;;
479;SDS011;226;48.606;9.096;2023-04-12T08:40:34;1.63;;;1.60;;
479;SDS011;226;48.606;9.096;2023-04-12T08:43:05;1.43;;;1.20;;
479;SDS011;226;48.606;9.096;2023-04-12T08:45:37;6.43;;;2.40;;
479;SDS011;226;48.606;9.096;2023-04-12T08:48:07;3.10;;;2.90;;
479;SDS011;226;48.606;9.096;2023-04-12T08:50:35;3.77;;;2.23;;
479;SDS011;226;48.606;9.096;2023-04-12T08:53:04;2.30;;;1.93;;
479;SDS011;226;48.606;9.096;2023-04-12T08:55:32;1.97;;;1.77;;
479;SDS011;226;48.606;9.096;2023-04-12T08:58:00;2.90;;;1.93;;
479;SDS011;226;48.606;9.096;2023-04-12T09:00:43;1.30;;;1.20;;
479;SDS011;226;48.606;9.096;2023-04-12T09:06:09;2.17;;;1.97;;
479;SDS011;226;48.606;9.096;2023-04-12T09:08:58;3.23;;;2.23;;
479;SDS011;226;48.606;9.096;2023-04-12T09:12:05;3.80;;;2.27;;
479;SDS011;226;48.606;9.096;2023-04-12T09:33:10;1.83;;;1.70;;
479;SDS011;226;48.606;9.096;2023-04-12T09:35:39;6.53;;;1.43;;
479;SDS011;226;48.606;9.096;2023-04-12T09:38:08;1.73;;;1.50;;
479;SDS011;226;48.606;9.096;2023-04-12T09:40:37;2.00;;;1.90;;
479;SDS011;226;48.606;9.096;2023-04-12T09:45:36;3.00;;;2.00;;
479;SDS011;226;48.606;9.096;2023-04-12T09:51:53;2.70;;;1.73;;
479;SDS011;226;48.606;9.096;2023-04-12T09:54:24;2.17;;;1.70;;
479;SDS011;226;48.606;9.096;2023-04-12T09:56:52;3.73;;;2.37;;
479;SDS011;226;48.606;9.096;2023-04-12T09:59:22;1.37;;;1.30;;
479;SDS011;226;48.606;9.096;2023-04-12T10:01:53;3.60;;;1.80;;
479;SDS011;226;48.606;9.096;2023-04-12T10:04:21;1.73;;;1.63;;
479;SDS011;226;48.606;9.096;2023-04-12T10:06:50;1.83;;;1.70;;
479;SDS011;226;48.606;9.096;2023-04-12T10:09:20;4.77;;;1.57;;
479;SDS011;226;48.606;9.096;2023-04-12T10:15:30;5.03;;;1.70;;
479;SDS011;226;48.606;9.096;2023-04-12T10:18:00;1.23;;;1.23;;
479;SDS011;226;48.606;9.096;2023-04-12T10:20:29;1.60;;;1.40;;
479;SDS011;226;48.606;9.096;2023-04-12T10:22:58;1.37;;;1.30;;
479;SDS011;226;48.606;9.096;2023-04-12T10:25:27;2.73;;;1.50;;
479;SDS011;226;48.606;9.096;2023-04-12T10:27:58;1.83;;;1.50;;
479;SDS011;226;48.606;9.096;2023-04-12T10:34:29;4.13;;;1.70;;
479;SDS011;226;48.606;9.096;2023-04-12T10:36:57;6.90;;;2.03;;
479;SDS011;226;48.606;9.096;2023-04-12T10:39:35;1.83;;;1.73;;
479;SDS011;226;48.606;9.096;2023-04-12T10:42:15;2.10;;;1.57;;
479;SDS011;226;48.606;9.096;2023-04-12T10:44:46;2.80;;;1.63;;
479;SDS011;226;48.606;9.096;2023-04-12T10:51:11;2.17;;;1.60;;
479;SDS011;226;48.606;9.096;2023-04-12T10:53:48;2.10;;;1.53;;
479;SDS011;226;48.606;9.096;2023-04-12T10:56:36;1.27;;;1.17;;
479;SDS011;226;48.606;9.096;2023-04-12T10:59:07;2.20;;;0.93;;
479;SDS011;226;48.606;9.096;2023-04-12T11:01:36;2.70;;;1.33;;
479;SDS011;226;48.606;9.096;2023-04-12T11:04:14;3.60;;;2.90;;
479;SDS011;226;48.606;9.096;2023-04-12T11:10:02;1.27;;;1.00;;
479;SDS011;226;48.606;9.096;2023-04-12T11:13:33;1.50;;;1.40;;
479;SDS011;226;48.606;9.096;2023-04-12T11:16:04;1.13;;;1.03;;
479;SDS011;226;48.606;9.096;2023-04-12T11:18:33;1.20;;;1.10;;
479;SDS011;226;48.606;9.096;2023-04-12T11:21:02;1.17;;;1.00;;
479;SDS011;226;48.606;9.096;2023-04-12T11:23:31;0.83;;;0.83;;
479;SDS011;226;48.606;9.096;2023-04-12T11:26:01;0.90;;;0.90;;
479;SDS011;226;48.606;9.096;2023-04-12T11:28:30;0.77;;;0.77;;
479;SDS011;226;48.606;9.096;2023-04-12T11:31:01;1.03;;;0.93;;
479;SDS011;226;48.606;9.096;2023-04-12T11:33:32;1.87;;;1.73;;
479;SDS011;226;48.606;9.096;2023-04-12T11:36:04;1.40;;;0.90;;
479;SDS011;226;48.606;9.096;2023-04-12T11:38:34;1.20;;;1.10;;
479;SDS011;226;48.606;9.096;2023-04-12T11:41:03;0.90;;;0.90;;
479;SDS011;226;48.606;9.096;2023-04-12T11:43:32;2.80;;;1.00;;
479;SDS011;226;48.606;9.096;2023-04-12T11:46:01;2.70;;;1.00;;
479;SDS011;226;48.606;9.096;2023-04-12T11:48:30;0.93;;;0.93;;
479;SDS011;226;48.606;9.096;2023-04-12T11:51:00;1.17;;;0.97;;
479;SDS011;226;48.606;9.096;2023-04-12T11:53:45;0.97;;;0.97;;
479;SDS011;226;48.606;9.096;2023-04-12T11:56:13;0.90;;;0.90;;
479;SDS011;226;48.606;9.096;2023-04-12T11:58:41;1.20;;;0.90;;
479;SDS011;226;48.606;9.096;2023-04-12T12:01:13;0.83;;;0.80;;
479;SDS011;226;48.606;9.096;2023-04-12T12:03:44;0.87;;;0.87;;
479;SDS011;226;48.606;9.096;2023-04-12T12:06:14;0.70;;;0.70;;
479;SDS011;226;48.606;9.096;2023-04-12T12:08:43;1.00;;;0.70;;
479;SDS011;226;48.606;9.096;2023-04-12T12:11:11;1.90;;;1.13;;
479;SDS011;226;48.606;9.096;2023-04-12T12:13:43;7.23;;;1.20;;
479;SDS011;226;48.606;9.096;2023-04-12T12:16:12;0.70;;;0.70;;
479;SDS011;226;48.606;9.096;2023-04-12T12:18:41;0.60;;;0.50;;
479;SDS011;226;48.606;9.096;2023-04-12T12:21:12;1.33;;;1.00;;
479;SDS011;226;48.606;9.096;2023-04-12T12:23:41;0.70;;;0.70;;
479;SDS011;226;48.606;9.096;2023-04-12T12:26:13;1.20;;;1.10;;
479;SDS011;226;48.606;9.096;2023-04-12T12:28:50;1.23;;;0.97;;
479;SDS011;226;48.606;9.096;2023-04-12T12:31:19;3.17;;;0.60;;
479;SDS011;226;48.606;9.096;2023-04-12T12:33:52;3.90;;;1.23;;
479;SDS011;226;48.606;9.096;2023-04-12T12:36:29;0.70;;;0.70;;
479;SDS011;226;48.606;9.096;2023-04-12T12:39:02;0.87;;;0.87;;
479;SDS011;226;48.606;9.096;2023-04-12T12:41:32;0.77;;;0.77;;
479;SDS011;226;48.606;9.096;2023-04-12T12:44:01;1.17;;;0.93;;
479;SDS011;226;48.606;9.096;2023-04-12T12:46:29;0.70;;;0.70;;
479;SDS011;226;48.606;9.096;2023-04-12T12:49:17;1.07;;;0.70;;
479;SDS011;226;48.606;9.096;2023-04-12T12:51:47;2.70;;;0.90;;
479;SDS011;226;48.606;9.096;2023-04-12T12:54:16;0.77;;;0.77;;
479;SDS011;226;48.606;9.096;2023-04-12T12:57:04;0.70;;;0.70;;
479;SDS011;226;48.606;9.096;2023-04-12T12:59:32;1.13;;;0.90;;
479;SDS011;226;48.606;9.096;2023-04-12T13:02:00;2.23;;;1.13;;
479;SDS011;226;48.606;9.096;2023-04-12T13:04:29;0.90;;;0.90;;
479;SDS011;226;48.606;9.096;2023-04-12T13:06:58;5.67;;;2.03;;
479;SDS011;226;48.606;9.096;2023-04-12T13:09:26;0.67;;;0.67;;
479;SDS011;226;48.606;9.096;2023-04-12T13:11:54;0.40;;;0.40;;
479;SDS011;226;48.606;9.096;2023-04-12T13:14:23;0.60;;;0.60;;
479;SDS011;226;48.606;9.096;2023-04-12T13:16:51;0.70;;;0.63;;
479;SDS011;226;48.606;9.096;2023-04-12T13:19:19;0.97;;;0.97;;
479;SDS011;226;48.606;9.096;2023-04-12T13:21:47;0.87;;;0.87;;
479;SDS011;226;48.606;9.096;2023-04-12T13:24:19;1.40;;;0.60;;
479;SDS011;226;48.606;9.096;2023-04-12T13:26:47;1.00;;;0.90;;
479;SDS011;226;48.606;9.096;2023-04-12T13:29:16;1.63;;;0.90;;
479;SDS011;226;48.606;9.096;2023-04-12T13:31:45;2.00;;;1.20;;
479;SDS011;226;48.606;9.096;2023-04-12T13:34:13;0.60;;;0.60;;
479;SDS011;226;48.606;9.096;2023-04-12T13:36:41;2.20;;;1.00;;
479;SDS011;226;48.606;9.096;2023-04-12T13:39:09;1.00;;;1.00;;
479;SDS011;226;48.606;9.096;2023-04-12T13:41:38;1.33;;;0.97;;
479;SDS011;226;48.606;9.096;2023-04-12T13:44:07;0.93;;;0.93;;
479;SDS011;226;48.606;9.096;2023-04-12T13:46:35;2.07;;;0.90;;
479;SDS011;226;48.606;9.096;2023-04-12T13:49:03;0.97;;;0.97;;
479;SDS011;226;48.606;9.096;2023-04-12T13:51:31;1.00;;;0.83;;
479;SDS011;226;48.606;9.096;2023-04-12T13:53:59;0.73;;;0.60;;
479;SDS011;226;48.606;9.096;2023-04-12T13:56:27;1.33;;;1.23;;
479;SDS011;226;48.606;9.096;2023-04-12T13:58:57;0.60;;;0.60;;
479;SDS011;226;48.606;9.096;2023-04-12T14:01:26;0.60;;;0.60;;
479;SDS011;226;48.606;9.096;2023-04-12T14:03:55;2.83;;;0.80;;
479;SDS011;226;48.606;9.096;2023-04-12T14:06:23;0.50;;;0.50;;
479;SDS011;226;48.606;9.096;2023-04-12T14:08:53;0.53;;;0.53;;
479;SDS011;226;48.606;9.096;2023-04-12T14:11:22;0.80;;;0.80;;
479;SDS011;226;48.606;9.096;2023-04-12T14:13:50;1.10;;;1.00;;
479;SDS011;226;48.606;9.096;2023-04-12T14:16:21;1.33;;;0.67;;
479;SDS011;226;48.606;9.096;2023-04-12T14:18:49;0.53;;;0.53;;
479;SDS011;226;48.606;9.096;2023-04-12T14:21:17;1.00;;;0.90;;
479;SDS011;226;48.606;9.096;2023-04-12T14:23:48;0.70;;;0.70;;
479;SDS011;226;48.606;9.096;2023-04-12T14:26:16;0.60;;;0.60;;
479;SDS011;226;48.606;9.096;2023-04-12T14:28:44;1.00;;;0.90;;
479;SDS011;226;48.606;9.096;2023-04-12T14:31:15;1.10;;;0.93;;
479;SDS011;226;48.606;9.096;2023-04-12T14:33:45;2.20;;;0.90;;
479;SDS011;226;48.606;9.096;2023-04-12T14:36:13;1.20;;;0.70;;
479;SDS011;226;48.606;9.096;2023-04-12T14:38:41;1.03;;;0.97;;
479;SDS011;226;48.606;9.096;2023-04-12T14:41:10;0.70;;;0.70;;
479;SDS011;226;48.606;9.096;2023-04-12T14:43:39;0.63;;;0.63;;
479;SDS011;226;48.606;9.096;2023-04-12T14:46:07;0.87;;;0.70;;
479;SDS011;226;48.606;9.096;2023-04-12T14:48:37;5.63;;;1.07;;
479;SDS011;226;48.606;9.096;2023-04-12T14:51:06;1.80;;;0.60;;
479;SDS011;226;48.606;9.096;2023-04-12T14:53:35;0.50;;;0.50;;
479;SDS011;226;48.606;9.096;2023-04-12T14:56:03;0.70;;;0.57;;
479;SDS011;226;48.606;9.096;2023-04-12T14:58:32;2.37;;;0.53;;
479;SDS011;226;48.606;9.096;2023-04-12T15:01:01;0.77;;;0.77;;
479;SDS011;226;48.606;9.096;2023-04-12T15:03:29;0.67;;;0.67;;
479;SDS011;226;48.606;9.096;2023-04-12T15:05:59;0.60;;;0.60;;
479;SDS011;226;48.606;9.096;2023-04-12T15:08:29;6.73;;;0.80;;
479;SDS011;226;48.606;9.096;2023-04-12T15:10:57;0.60;;;0.60;;
479;SDS011;226;48.606;9.096;2023-04-12T15:13:25;1.20;;;1.10;;
479;SDS011;226;48.606;9.096;2023-04-12T15:15:59;0.70;;;0.67;;
479;SDS011;226;48.606;9.096;2023-04-12T15:18:27;0.73;;;0.70;;
479;SDS011;226;48.606;9.096;2023-04-12T15:20:56;0.70;;;0.70;;
479;SDS011;226;48.606;9.096;2023-04-12T15:23:25;0.70;;;0.60;;
479;SDS011;226;48.606;9.096;2023-04-12T15:25:57;0.60;;;0.60;;
479;SDS011;226;48.606;9.096;2023-04-12T15:28:27;0.70;;;0.70;;
479;SDS011;226;48.606;9.096;2023-04-12T15:30:56;0.60;;;0.60;;
479;SDS011;226;48.606;9.096;2023-04-12T15:33:24;0.70;;;0.70;;
479;SDS011;226;48.606;9.096;2023-04-12T15:35:52;0.83;;;0.83;;
479;SDS011;226;48.606;9.096;2023-04-12T15:38:22;0.60;;;0.60;;
479;SDS011;226;48.606;9.096;2023-04-12T15:40:52;0.70;;;0.70;;
479;SDS011;226;48.606;9.096;2023-04-12T15:43:23;0.57;;;0.57;;
479;SDS011;226;48.606;9.096;2023-04-12T15:45:51;0.77;;;0.77;;
479;SDS011;226;48.606;9.096;2023-04-12T15:48:20;0.50;;;0.50;;
479;SDS011;226;48.606;9.096;2023-04-12T15:50:49;0.63;;;0.63;;
479;SDS011;226;48.606;9.096;2023-04-12T15:53:18;0.50;;;0.50;;
479;SDS011;226;48.606;9.096;2023-04-12T15:55:47;0.50;;;0.50;;
479;SDS011;226;48.606;9.096;2023-04-12T15:58:20;0.60;;;0.60;;
479;SDS011;226;48.606;9.096;2023-04-12T16:00:52;0.70;;;0.70;;
479;SDS011;226;48.606;9.096;2023-04-12T16:03:20;0.83;;;0.73;;
479;SDS011;226;48.606;9.096;2023-04-12T16:05:50;0.63;;;0.63;;
479;SDS011;226;48.606;9.096;2023-04-12T16:08:19;0.80;;;0.80;;
479;SDS011;226;48.606;9.096;2023-04-12T16:10:48;0.80;;;0.80;;
479;SDS011;226;48.606;9.096;2023-04-12T16:13:16;0.70;;;0.70;;
479;SDS011;226;48.606;9.096;2023-04-12T16:15:46;0.80;;;0.80;;
479;SDS011;226;48.606;9.096;2023-04-12T16:18:30;1.47;;;0.77;;
479;SDS011;226;48.606;9.096;2023-04-12T16:20:58;0.60;;;0.60;;
479;SDS011;226;48.606;9.096;2023-04-12T16:23:27;2.03;;;1.17;;
479;SDS011;226;48.606;9.096;2023-04-12T16:25:56;0.60;;;0.60;;
479;SDS011;226;48.606;9.096;2023-04-12T16:28:25;0.60;;;0.60;;
479;SDS011;226;48.606;9.096;2023-04-12T16:30:53;0.83;;;0.83;;
479;SDS011;226;48.606;9.096;2023-04-12T16:33:21;0.80;;;0.80;;
479;SDS011;226;48.606;9.096;2023-04-12T16:35:51;0.80;;;0.80;;
479;SDS011;226;48.606;9.096;2023-04-12T16:38:19;1.00;;;1.00;;
479;SDS011;226;48.606;9.096;2023-04-12T16:40:47;0.50;;;0.50;;
479;SDS011;226;48.606;9.096;2023-04-12T16:43:15;0.67;;;0.67;;
479;SDS011;226;48.606;9.096;2023-04-12T16:45:43;0.70;;;0.70;;